Ekimchan, Russia
Current Conditions -  °F | °C
As of 6:30 AM on Tuesday 25 Nov 2014 (Local Time) from UHBB Reporting Station
Clear Clear  
Wind Chill:   Ceiling: Unl
Heat Index: 10°   Visibility: 6mi
Dew Point:   Wind: 7mph
Humidity: 85%   Direction: 210°SSW
Pressure: 30.06"   Gusts: NA
Location:  53.07°N, 132.97°E
Report Text: UHBB 242130Z 21003MPS 180V250 CAVOK M12/M14 Q1018 NOSIG RMKQFE746/0995 36810350
Loading
Personal Weather Stations






























Interactive Weather Map New forecast layout! Learn more

10-Day Weather Forecast

Advertisements
Track Severe Weather on mobile